Flight Track Log - Related Links

Times and Time Zones

All times are in EDT time to prevent confusion due to time zone crossing. See the GEC8188 flight status page for this flight to view local times or setup timezone preferences in your user account.

Time Position Orientation Groundspeed Altitude Reporting Facility
EDT Latitude Longitude Course Direction KTS MPH feet Rate Location/Type
Sun 08:35:00 PM 56.8818 -46.9775 304° West  Level Estimated
Sun 08:36:00 PM 56.8540 -47.2120 258° West  Level Estimated
Sun 08:36:43 PM 67.2870 -47.7550 258° West 479 551 32,100  Level FlightAware ADS-B
Sun 08:37:00 PM 56.8257 -47.4463 258° West  Level Estimated
Sun 08:37:20 PM 67.2620 -47.9610 253° West 478 550 32,100  Level FlightAware ADS-B
Sun 08:38:04 PM 67.2330 -48.2000 253° West 475 547 32,000 -68 Descending FlightAware ADS-B
Sun 08:38:48 PM 67.2040 -48.4330 252° West 473 544 32,000  Level FlightAware ADS-B
Sun 08:39:44 PM 67.1670 -48.7330 252° West 471 542 32,000  Level FlightAware ADS-B
Sun 08:40:24 PM 67.1390 -48.9470 251° West 468 539 32,000  Level FlightAware ADS-B
Sun 08:41:08 PM 67.1110 -49.1700 252° West 470 541 32,000  Level FlightAware ADS-B
Sun 08:41:48 PM 67.0820 -49.3910 251° West 474 545 32,000 73 Level FlightAware ADS-B
Sun 08:42:30 PM 67.0520 -49.6160 251° West 477 549 32,100 70 Climbing FlightAware ADS-B
Sun 08:43:14 PM 67.0210 -49.8460 251° West 479 551 32,100  Level FlightAware ADS-B
Sun 08:43:56 PM 66.9910 -50.0680 251° West 478 550 32,100 -73 Level FlightAware ADS-B
Sun 08:44:36 PM 66.9570 -50.2800 248° West 476 548 32,000 -65 Descending FlightAware ADS-B
Sun 08:45:28 PM 66.9290 -50.4580 248° West 475 547 32,000  Level FlightAware ADS-B
Sun 08:46:12 PM 66.8780 -50.7790 248° West 474 545 32,000  Level FlightAware ADS-B
Sun 08:46:52 PM 66.8450 -50.9790 247° West 473 544 32,000  Level FlightAware ADS-B
Sun 08:47:36 PM 66.8090 -51.2020 248° West 473 544 32,000  Level FlightAware ADS-B
Sun 08:48:18 PM 66.7730 -51.4220 248° West 474 545 32,000  Level FlightAware ADS-B
Sun 08:48:58 PM 66.7380 -51.6280 247° West 474 545 32,000  Level FlightAware ADS-B
Sun 08:49:43 PM 66.7000 -51.8520 247° West 476 548 32,000 73 Level FlightAware ADS-B
Sun 08:50:20 PM 66.6680 -52.0410 247° West 476 548 32,100 76 Climbing FlightAware ADS-B
Sun 08:51:02 PM 66.6310 -52.2520 246° West 476 548 32,100 -59 Level FlightAware ADS-B
Sun 08:52:02 PM 66.5780 -52.5560 246° West 475 547 32,000 -60 Descending FlightAware ADS-B
Sun 08:52:42 PM 66.5420 -52.7600 246° West 473 544 32,000  Level FlightAware ADS-B
Sun 08:53:26 PM 66.5050 -52.9700 246° West 473 544 32,000  Level FlightAware ADS-B
Sun 08:54:06 PM 66.4670 -53.1770 245° Southwest 471 542 32,000  Level FlightAware ADS-B
Sun 08:54:48 PM 66.4300 -53.3790 245° Southwest 470 541 32,000  Level FlightAware ADS-B
Sun 08:55:29 PM 66.3960 -53.5600 245° Southwest 470 541 32,000  Level FlightAware ADS-B
Sun 08:56:29 PM 66.3490 -53.8110 245° Southwest 470 541 32,000  Level FlightAware ADS-B
Sun 08:57:05 PM 66.3210 -53.9610 245° Southwest 470 541 32,000  Level FlightAware ADS-B
Sun 08:58:07 PM 66.2730 -54.2190 245° Southwest 470 541 32,000  Level FlightAware ADS-B
Sun 08:58:43 PM 66.2450 -54.3690 245° Southwest 470 541 32,000  Level FlightAware ADS-B
Sun 08:59:45 PM 66.1960 -54.6260 245° Southwest 470 541 32,000  Level FlightAware ADS-B
Sun 09:00:21 PM 66.1680 -54.7760 245° Southwest 470 541 32,000  Level FlightAware ADS-B
Sun 09:01:10 PM 66.1300 -54.9790 245° Southwest 470 541 32,000  Level FlightAware ADS-B
Sun 09:01:46 PM 66.1020 -55.1280 245° Southwest 470 541 32,000  Level FlightAware ADS-B
Sun 09:02:34 PM 66.0640 -55.3260 245° Southwest 470 541 32,000  Level FlightAware ADS-B
Sun 09:03:10 PM 66.0360 -55.4740 245° Southwest 470 541 32,000  Level FlightAware ADS-B
Sun 09:03:47 PM 66.0070 -55.6270 245° Southwest 470 541 32,000  Level FlightAware ADS-B
Sun 09:04:35 PM 65.9690 -55.8240 245° Southwest 470 541 32,000  Level FlightAware ADS-B
Sun 09:07:00 PM 65.7885 -56.3943 233° Southwest  Level Estimated
Sun 09:08:00 PM 65.7132 -56.6280 232° Southwest  Level Estimated
Sun 09:09:00 PM 65.6376 -56.8603 232° Southwest  Level Estimated
Sun 09:10:00 PM 65.5616 -57.0913 232° Southwest  Level Estimated
Sun 09:11:00 PM 65.4852 -57.3209 231° Southwest  Level Estimated
Sun 09:12:00 PM 65.4085 -57.5492 231° Southwest  Level Estimated
Sun 09:13:00 PM 65.3315 -57.7761 231° Southwest  Level Estimated
Sun 09:14:00 PM 65.2897 -58.0723 251° West  Level FlightAware Approximate
Sun 09:14:07 PM 65.3000 -58.7667 250° West 480 552 32,000  Level Montreal Center
Sun 09:15:00 PM 65.2473 -58.3676 251° West  Level FlightAware Approximate
Sun 09:15:07 PM 65.2333 -59.0500 241° Southwest 480 552 32,000  Level Montreal Center
Sun 09:16:00 PM 65.2044 -58.6619 251° West  Level FlightAware Approximate
Sun 09:16:07 PM 65.1500 -59.2667 228° Southwest 470 541 32,000  Level Montreal Center
Sun 09:17:00 PM 65.1609 -58.9553 251° West  Level FlightAware Approximate
Sun 09:17:11 PM 65.0833 -59.6000 245° Southwest 480 552 32,000  Level Gander Center
Sun 09:17:50 PM 65.0167 -59.7667 227° Southwest 480 552 32,000  Level Gander Center
Sun 09:18:00 PM 65.1168 -59.2477 250° West  Level FlightAware Approximate
Sun 09:18:50 PM 64.9333 -60.0000 230° Southwest 480 552 32,000  Level Gander Center
Sun 09:19:00 PM 65.0721 -59.5392 250° West  Level FlightAware Approximate
Sun 09:19:50 PM 64.8500 -60.2333 230° Southwest 480 552 32,000  Level Gander Center
Sun 09:20:50 PM 64.7667 -60.4667 230° Southwest 480 552 32,000  Level Gander Center
Sun 09:21:50 PM 64.6833 -60.7000 230° Southwest 480 552 32,000  Level Gander Center
Sun 09:22:50 PM 64.6000 -60.9333 230° Southwest 470 541 32,000  Level Gander Center
Sun 09:23:50 PM 64.5167 -61.1667 230° Southwest 460 529 32,000  Level Gander Center
Sun 09:24:50 PM 64.4333 -61.3667 226° Southwest 460 529 32,000  Level Gander Center
Sun 09:25:50 PM 64.3667 -61.5833 235° Southwest 460 529 32,000  Level Gander Center
Sun 09:26:50 PM 64.2833 -61.8167 231° Southwest 460 529 32,000  Level Gander Center
Sun 09:27:50 PM 64.2000 -62.0833 234° Southwest 460 529 32,000  Level Gander Center
Sun 09:28:50 PM 64.1000 -62.3000 223° Southwest 460 529 32,000  Level Gander Center
Sun 09:29:50 PM 64.0167 -62.4833 224° Southwest 460 529 32,000  Level Gander Center
Sun 09:30:50 PM 63.9333 -62.7167 231° Southwest 460 529 32,000  Level Gander Center
Sun 09:31:50 PM 63.8500 -62.9333 229° Southwest 460 529 32,000  Level Gander Center
Sun 09:32:50 PM 63.7667 -63.1500 229° Southwest 460 529 32,000  Level Gander Center
Sun 09:33:50 PM 63.6833 -63.3667 229° Southwest 470 541 32,000  Level Gander Center
Sun 09:34:50 PM 63.5833 -63.5833 224° Southwest 470 541 32,000  Level Gander Center
Sun 09:35:50 PM 63.5000 -63.8000 229° Southwest 480 552 32,000  Level Gander Center
Sun 09:36:50 PM 63.4167 -64.0167 229° Southwest 470 541 32,000  Level Gander Center
Sun 09:37:50 PM 63.3167 -64.2333 224° Southwest 480 552 32,000  Level Gander Center
Sun 09:38:50 PM 63.2333 -64.4500 230° Southwest 480 552 32,000  Level Gander Center
Sun 09:39:50 PM 63.1333 -64.6500 222° Southwest 490 564 32,000  Level Gander Center
Sun 09:40:50 PM 63.0500 -64.8667 230° Southwest 480 552 32,000  Level Gander Center
Sun 09:41:51 PM 62.9500 -65.0667 222° Southwest 490 564 32,000  Level Gander Center
Sun 09:42:51 PM 62.8500 -65.2833 225° Southwest 490 564 32,000  Level Gander Center
Sun 09:43:51 PM 62.7500 -65.4833 223° Southwest 490 564 32,000  Level Gander Center
Sun 09:44:51 PM 62.6333 -65.6833 218° Southwest 490 564 32,000  Level Gander Center
Sun 09:45:51 PM 62.5500 -65.8833 228° Southwest 490 564 32,000  Level Gander Center
Sun 09:46:51 PM 62.4500 -66.0833 223° Southwest 500 575 32,000  Level Gander Center
Sun 09:47:51 PM 62.3333 -66.2500 214° Southwest 490 564 32,000  Level Gander Center
Sun 09:48:51 PM 62.2500 -66.4500 228° Southwest 500 575 32,000  Level Gander Center
Sun 09:49:51 PM 62.1500 -66.6500 223° Southwest 500 575 32,000  Level Gander Center
Sun 09:50:51 PM 62.0333 -66.8333 216° Southwest 500 575 32,000  Level Gander Center
Sun 09:51:51 PM 61.9333 -67.0333 223° Southwest 500 575 32,000  Level Gander Center
Sun 09:52:51 PM 61.8167 -67.2167 217° Southwest 500 575 32,000  Level Gander Center
Sun 09:53:51 PM 61.7167 -67.4167 224° Southwest 500 575 32,000  Level Gander Center
Sun 09:54:51 PM 61.6167 -67.6000 221° Southwest 500 575 32,000  Level Gander Center
Sun 09:55:51 PM 61.5167 -67.8000 224° Southwest 500 575 32,000  Level Gander Center
Sun 09:56:51 PM 61.4000 -67.9833 217° Southwest 500 575 32,000  Level Gander Center
Sun 09:57:51 PM 61.3000 -68.1667 221° Southwest 500 575 32,000 50 Level Gander Center
Sun 09:58:51 PM 61.2000 -68.3500 221° Southwest 500 575 32,100 50 Climbing Gander Center
Sun 09:59:51 PM 61.1000 -68.5333 222° Southwest 500 575 32,100 -50 Level Gander Center
Sun 10:00:51 PM 60.9833 -68.7167 217° Southwest 500 575 32,000 -50 Descending Gander Center
Sun 10:01:51 PM 60.8833 -68.9000 222° Southwest 500 575 32,000  Level Gander Center
Sun 10:02:51 PM 60.7667 -69.0833 218° Southwest 490 564 32,000  Level Gander Center
Sun 10:03:51 PM 60.6500 -69.2667 218° Southwest 500 575 32,000  Level Gander Center
Sun 10:04:51 PM 60.5667 -69.4500 227° Southwest 500 575 32,000 50 Level Gander Center
Sun 10:05:51 PM 60.4500 -69.6167 215° Southwest 500 575 32,100  Climbing Gander Center
Sun 10:06:51 PM 60.3333 -69.8000 218° Southwest 500 575 32,000 -50 Descending Gander Center
Sun 10:07:51 PM 60.2333 -69.9333 214° Southwest 500 575 32,000  Level Gander Center
Sun 10:08:51 PM 60.1333 -70.1500 227° Southwest 500 575 32,000  Level Gander Center
Sun 10:09:51 PM 60.0167 -70.2833 210° Southwest 500 575 32,000  Level Gander Center
Sun 10:10:51 PM 59.9167 -70.4667 223° Southwest 500 575 32,000  Level Gander Center
Sun 10:11:51 PM 59.8000 -70.6667 221° Southwest 500 575 32,000  Level Gander Center
Sun 10:12:51 PM 59.6833 -70.8333 216° Southwest 500 575 32,000  Level Gander Center
Sun 10:13:51 PM 59.5667 -71.0000 216° Southwest 500 575 32,000  Level Gander Center
Sun 10:15:12 PM 59.4167 -71.2167 216° Southwest 510 587 32,000  Level Gander Center
Sun 10:16:12 PM 59.3167 -71.3500 214° Southwest 500 575 32,000  Level Gander Center
Sun 10:17:08 PM 59.2167 -71.4667 211° Southwest 500 575 32,000  Level Montreal Center
Sun 10:18:08 PM 59.1000 -71.6333 216° Southwest 500 575 32,000  Level Montreal Center
Sun 10:19:08 PM 59.0000 -71.8167 223° Southwest 500 575 32,000  Level Montreal Center
Sun 10:20:08 PM 58.8833 -71.9667 214° Southwest 510 587 32,000  Level Montreal Center
Sun 10:21:08 PM 58.7667 -72.1333 217° Southwest 490 564 32,000  Level Montreal Center
Sun 10:22:08 PM 58.6500 -72.2833 214° Southwest 500 575 32,000  Level Montreal Center
Sun 10:23:08 PM 58.5333 -72.4500 217° Southwest 510 587 32,000  Level Montreal Center
Sun 10:24:08 PM 58.4333 -72.6167 221° Southwest 510 587 32,000  Level Montreal Center
Sun 10:25:08 PM 58.3167 -72.7667 214° Southwest 500 575 32,000  Level Montreal Center
Sun 10:26:08 PM 58.2000 -72.9333 217° Southwest 510 587 32,000  Level Montreal Center
Sun 10:27:08 PM 58.0833 -73.1000 217° Southwest 510 587 32,000  Level Montreal Center
Sun 10:28:08 PM 57.9667 -73.2333 211° Southwest 510 587 32,000  Level Montreal Center
Sun 10:29:08 PM 57.8500 -73.4000 217° Southwest 510 587 32,000  Level Montreal Center
Sun 10:30:08 PM 57.7333 -73.5667 217° Southwest 510 587 32,000  Level Montreal Center
Sun 10:31:08 PM 57.6167 -73.7333 217° Southwest 510 587 32,000  Level Montreal Center
Sun 10:32:08 PM 57.5000 -73.8667 212° Southwest 510 587 32,000  Level Montreal Center
Sun 10:33:08 PM 57.3833 -74.0333 218° Southwest 510 587 32,000  Level Montreal Center
Sun 10:34:08 PM 57.2667 -74.1833 215° Southwest 510 587 32,000  Level Montreal Center
Sun 10:35:08 PM 57.1500 -74.3500 218° Southwest 520 598 32,000  Level Montreal Center
Sun 10:36:08 PM 57.0333 -74.4833 212° Southwest 520 598 32,000  Level Montreal Center
Sun 10:37:08 PM 56.9000 -74.6333 212° Southwest 510 587 32,000 50 Level Montreal Center
Sun 10:38:08 PM 56.7833 -74.7667 212° Southwest 520 598 32,100 50 Climbing Montreal Center
Sun 10:39:08 PM 56.6667 -74.9167 215° Southwest 530 610 32,100 -50 Level Montreal Center
Sun 10:40:08 PM 56.5500 -75.0833 218° Southwest 510 587 32,000 -50 Descending Montreal Center
Sun 10:41:08 PM 56.4167 -75.2333 212° Southwest 520 598 32,000  Level Montreal Center
Sun 10:42:04 PM 56.3000 -75.3500 209° Southwest 520 598 32,000  Level Montreal Center
Sun 10:43:04 PM 56.1833 -75.5000 216° Southwest 520 598 32,000  Level Montreal Center
Sun 10:44:04 PM 56.0667 -75.6667 219° Southwest 520 598 32,000  Level Montreal Center
Sun 10:45:04 PM 55.9500 -75.7833 209° Southwest 520 598 32,000 50 Level Montreal Center
Sun 10:46:04 PM 55.8167 -75.9333 212° Southwest 520 598 32,100  Climbing Montreal Center
Sun 10:47:04 PM 55.7000 -76.0833 216° Southwest 520 598 32,000 -50 Descending Montreal Center
Sun 10:48:04 PM 55.5833 -76.2333 216° Southwest 520 598 32,000  Level Montreal Center
Sun 10:49:04 PM 55.4667 -76.3500 210° Southwest 520 598 32,000  Level Montreal Center
Sun 10:50:04 PM 55.3500 -76.5000 216° Southwest 520 598 32,000  Level Montreal Center
Sun 10:52:04 PM 55.0833 -76.7833 211° Southwest 520 598 32,000 25 Level Montreal Center
Sun 10:54:04 PM 54.8333 -77.0667 213° Southwest 520 598 32,100  Climbing Montreal Center
Sun 10:55:04 PM 54.7167 -77.1833 210° Southwest 520 598 32,000 -50 Descending Montreal Center
Sun 10:56:04 PM 54.6000 -77.3333 217° Southwest 510 587 32,000  Level Montreal Center
Sun 10:57:04 PM 54.4833 -77.4667 214° Southwest 510 587 32,000  Level Montreal Center
Sun 10:58:04 PM 54.3500 -77.5833 207° Southwest 500 575 32,000  Level Montreal Center
Sun 10:59:04 PM 54.2333 -77.7167 214° Southwest 500 575 32,000  Level Montreal Center
Sun 11:00:04 PM 54.1167 -77.8333 210° Southwest 500 575 32,000  Level Montreal Center
Sun 11:01:04 PM 54.0000 -77.9667 214° Southwest 490 564 32,000  Level Montreal Center
Sun 11:02:04 PM 53.9000 -78.0833 215° Southwest 490 564 32,000  Level Montreal Center
Sun 11:03:04 PM 53.7667 -78.2167 211° Southwest 490 564 32,000  Level Montreal Center
Sun 11:05:03 PM 53.5333 -78.4500 211° Southwest 490 564 32,000  Level Montreal Center
Sun 11:06:03 PM 53.4167 -78.5667 211° Southwest 500 575 32,000  Level Montreal Center
Sun 11:07:03 PM 53.3000 -78.7000 214° Southwest 500 575 32,000  Level Montreal Center
Sun 11:08:03 PM 53.1667 -78.8333 211° Southwest 510 587 32,000 50 Level Montreal Center
Sun 11:09:03 PM 53.0500 -78.9667 215° Southwest 510 587 32,100  Climbing Montreal Center
Sun 11:10:03 PM 52.9333 -79.0667 207° Southwest 510 587 32,000 -50 Descending Montreal Center
Sun 11:11:03 PM 52.8167 -79.2000 215° Southwest 510 587 32,000  Level Montreal Center
Sun 11:12:03 PM 52.6833 -79.3000 204° Southwest 500 575 32,000  Level Montreal Center
Sun 11:13:03 PM 52.5667 -79.4333 215° Southwest 500 575 32,000  Level Montreal Center
Sun 11:14:03 PM 52.4500 -79.5333 208° Southwest 490 564 32,000  Level Montreal Center
Sun 11:15:03 PM 52.3167 -79.6500 208° Southwest 490 564 32,000  Level Montreal Center
Sun 11:16:03 PM 52.2000 -79.7500 208° Southwest 490 564 32,000  Level Montreal Center
Sun 11:17:03 PM 52.0833 -79.8833 215° Southwest 490 564 32,000  Level Montreal Center
Sun 11:18:03 PM 51.9833 -79.9833 212° Southwest 490 564 32,000  Level Montreal Center
Sun 11:19:09 PM 51.8333 -80.0833 202° Southwest 490 564 32,000  Level Toronto Center
Sun 11:20:09 PM 51.7167 -80.2000 212° Southwest 480 552 32,000  Level Toronto Center
Sun 11:21:09 PM 51.6000 -80.3000 208° Southwest 480 552 32,000  Level Toronto Center
Sun 11:22:09 PM 51.5000 -80.4000 212° Southwest 480 552 32,000  Level Toronto Center
Sun 11:23:09 PM 51.3667 -80.5000 205° Southwest 470 541 32,000  Level Toronto Center
Sun 11:24:09 PM 51.2667 -80.6167 216° Southwest 480 552 32,000 150 Level Toronto Center
Sun 11:25:09 PM 51.1667 -80.7667 223° Southwest 480 552 32,300 650 Climbing Toronto Center
Sun 11:26:09 PM 51.0667 -80.9000 220° Southwest 480 552 33,300 850 Climbing Toronto Center
Sun 11:27:09 PM 50.9667 -81.0333 220° Southwest 480 552 34,000 350 Climbing Toronto Center
Sun 11:28:09 PM 50.8667 -81.1500 216° Southwest 480 552 34,000  Level Toronto Center
Sun 11:29:09 PM 50.7667 -81.3167 227° Southwest 480 552 34,000  Level Toronto Center
Sun 11:30:09 PM 50.6667 -81.4333 216° Southwest 490 564 34,000  Level Toronto Center
Sun 11:31:09 PM 50.5667 -81.5667 220° Southwest 490 564 34,000  Level Toronto Center
Sun 11:32:09 PM 50.4500 -81.7167 219° Southwest 480 552 34,000  Level Toronto Center
Sun 11:33:09 PM 50.3667 -81.8500 226° Southwest 480 552 34,000  Level Toronto Center
Sun 11:34:09 PM 50.2333 -81.9667 209° Southwest 490 564 34,000  Level Toronto Center
Sun 11:35:09 PM 50.1333 -82.1000 221° Southwest 480 552 34,000  Level Toronto Center
Sun 11:36:09 PM 50.0333 -82.2500 224° Southwest 480 552 34,000 -50 Level Toronto Center
Sun 11:37:09 PM 49.9333 -82.3667 217° Southwest 470 541 33,900  Descending Toronto Center
Sun 11:38:09 PM 49.8333 -82.5000 221° Southwest 470 541 34,000 50 Climbing Toronto Center
Sun 11:39:09 PM 49.7333 -82.6167 217° Southwest 470 541 34,000  Level Toronto Center
Sun 11:40:09 PM 49.6167 -82.7333 213° Southwest 480 552 34,000  Level Toronto Center
Sun 11:41:09 PM 49.5167 -82.8667 221° Southwest 480 552 34,000  Level Toronto Center
Sun 11:42:09 PM 49.4167 -82.9833 217° Southwest 470 541 34,000 -50 Level Toronto Center
Sun 11:43:09 PM 49.3167 -83.1000 217° Southwest 460 529 33,900  Descending Toronto Center
Sun 11:44:09 PM 49.2167 -83.2167 217° Southwest 460 529 34,000 50 Climbing Toronto Center
Sun 11:45:09 PM 49.1000 -83.3500 217° Southwest 460 529 34,000  Level Toronto Center
Sun 11:51:09 PM 48.5140 -84.0670 217° Southwest 452 520 34,000  Level FlightAware ADS-B
Sun 11:51:53 PM 48.4420 -84.1500 217° Southwest 450 518 34,000  Level FlightAware ADS-B
Sun 11:52:37 PM 48.3680 -84.2330 217° Southwest 448 516 34,000  Level FlightAware ADS-B
Sun 11:53:15 PM 48.3050 -84.3050 217° Southwest 447 514 34,000  Level FlightAware ADS-B
Sun 11:54:01 PM 48.2270 -84.3930 217° Southwest 448 516 34,000  Level FlightAware ADS-B
Sun 11:54:41 PM 48.1610 -84.4670 217° Southwest 447 514 34,000  Level FlightAware ADS-B
Sun 11:55:21 PM 48.0960 -84.5410 217° Southwest 447 514 34,000 48 Level FlightAware ADS-B
Sun 11:56:45 PM 47.9570 -84.6960 217° Southwest 446 513 34,100  Climbing FlightAware ADS-B
Sun 11:57:30 PM 47.8850 -84.7750 216° Southwest 446 513 34,000 -71 Descending FlightAware ADS-B
Sun 11:58:10 PM 47.8170 -84.8500 217° Southwest 447 514 34,000  Level FlightAware ADS-B
Sun 11:58:54 PM 47.7430 -84.9320 217° Southwest 448 516 34,000  Level FlightAware ADS-B
Sun 11:59:32 PM 47.6820 -85.0000 217° Southwest 449 517 34,000  Level FlightAware ADS-B
Mon 12:00:14 AM 47.6110 -85.0770 216° Southwest 452 520 34,000  Level FlightAware ADS-B
Mon 12:00:58 AM 47.5380 -85.1570 217° Southwest 455 524 34,000 68 Level FlightAware ADS-B
Mon 12:01:42 AM 47.4610 -85.2420 217° Southwest 458 527 34,100 71 Climbing FlightAware ADS-B
Mon 12:02:22 AM 47.3930 -85.3140 216° Southwest 461 531 34,100 -71 Level FlightAware ADS-B
Mon 12:03:06 AM 47.3160 -85.3980 216° Southwest 464 534 34,000  Descending FlightAware ADS-B
Mon 12:03:46 AM 47.2470 -85.4720 216° Southwest 464 534 34,100  Climbing FlightAware ADS-B
Mon 12:04:30 AM 47.1720 -85.5530 216° Southwest 464 534 34,000 -71 Descending FlightAware ADS-B
Mon 12:05:10 AM 47.1020 -85.6270 216° Southwest 463 533 34,000  Level FlightAware ADS-B
Mon 12:05:54 AM 47.0270 -85.7070 216° Southwest 461 531 34,000  Level FlightAware ADS-B
Mon 12:06:30 AM 46.9650 -85.7730 216° Southwest 459 528 34,000  Level FlightAware ADS-B
Mon 12:07:18 AM 46.8820 -85.8620 216° Southwest 455 524 34,000  Level FlightAware ADS-B
Mon 12:07:59 AM 46.8150 -85.9320 216° Southwest 451 519 34,000  Level FlightAware ADS-B
Mon 12:08:42 AM 46.7400 -86.0100 215° Southwest 448 516 34,000  Level FlightAware ADS-B
Mon 12:09:22 AM 46.6730 -86.0820 216° Southwest 446 513 34,000  Level FlightAware ADS-B
Mon 12:10:06 AM 46.6010 -86.1570 216° Southwest 448 516 34,000  Level FlightAware ADS-B
Mon 12:10:46 AM 46.5320 -86.2290 216° Southwest 453 521 34,000 73 Level FlightAware ADS-B
Mon 12:11:28 AM 46.4610 -86.2960 213° Southwest 457 526 34,100 71 Climbing FlightAware ADS-B
Mon 12:12:11 AM 46.3770 -86.3600 208° Southwest 459 528 34,100 -72 Level FlightAware ADS-B
Mon 12:12:51 AM 46.3030 -86.4170 208° Southwest 454 522 34,000 -73 Descending FlightAware ADS-B
Mon 12:13:33 AM 46.2280 -86.4740 208° Southwest 454 522 34,000  Level FlightAware ADS-B
Mon 12:14:15 AM 46.1500 -86.5350 208° Southwest 453 521 34,000  Level FlightAware ADS-B
Mon 12:15:58 AM 45.9780 -86.6630 207° Southwest 454 522 34,000  Level FlightAware ADS-B
Mon 12:18:16 AM 45.7580 -86.8230 207° Southwest 454 522 34,000  Level FlightAware ADS-B
Mon 12:18:52 AM 45.6370 -86.9240 210° Southwest 453 521 34,000  Level FlightAware ADS-B
Mon 12:19:41 AM 45.5590 -86.9810 207° Southwest 453 521 34,000  Level FlightAware ADS-B
Mon 12:20:37 AM 45.4490 -87.0640 208° Southwest 453 521 34,000  Level FlightAware ADS-B
Mon 12:21:13 AM 45.3920 -87.1060 207° Southwest 453 521 34,000  Level FlightAware ADS-B
Mon 12:22:01 AM 45.3160 -87.1610 207° Southwest 453 521 34,000  Level FlightAware ADS-B
Mon 12:22:37 AM 45.2580 -87.2020 206° Southwest 453 521 34,000  Level FlightAware ADS-B
Mon 12:23:25 AM 45.1820 -87.2580 207° Southwest 453 521 34,000  Level FlightAware ADS-B
Mon 12:24:08 AM 45.0460 -87.3640 209° Southwest 460 529 34,000  Level FlightAware ADS-B
Mon 12:24:45 AM 44.9820 -87.4100 207° Southwest 460 529 34,000  Level FlightAware ADS-B
Mon 12:25:33 AM 44.9050 -87.4660 207° Southwest 460 529 34,000  Level FlightAware ADS-B
Mon 12:26:10 AM 44.8450 -87.5080 206° Southwest 460 529 34,000  Level FlightAware ADS-B
Mon 12:26:46 AM 44.7870 -87.5500 207° Southwest 460 529 34,000 -614 Level FlightAware ADS-B
Mon 12:27:38 AM 44.6490 -87.6520 208° Southwest 447 514 33,100 -1,043 Descending FlightAware ADS-B
Mon 12:28:18 AM 44.5760 -87.7050 207° Southwest 445 512 32,400 -1,000 Descending FlightAware ADS-B
Mon 12:29:02 AM 44.4980 -87.7620 208° Southwest 440 506 31,700 -1,000 Descending FlightAware ADS-B
Mon 12:29:42 AM 44.4240 -87.8150 207° Southwest 436 502 31,000 -1,080 Descending FlightAware ADS-B
Mon 12:29:52 AM 44.4070 -87.8270 207° Southwest 436 502 30,800 -963 Descending FlightAware ADS-B
Mon 12:31:03 AM 44.2790 -87.9180 207° Southwest 434 499 29,700 -960 Descending FlightAware ADS-B
Mon 12:31:57 AM 44.1870 -87.9840 207° Southwest 426 490 28,800 -742 Descending FlightAware ADS-B
Mon 12:32:40 AM 44.1160 -88.0330 206° Southwest 425 489 28,500 -1,047 Descending FlightAware ADS-B
Mon 12:33:23 AM 44.0340 -88.0920 207° Southwest 423 487 27,300 -1,326 Descending FlightAware ADS-B
Mon 12:34:06 AM 43.9580 -88.1460 207° Southwest 421 484 26,600 -940 Descending FlightAware ADS-B
Mon 12:34:46 AM 43.8880 -88.1950 207° Southwest 418 481 26,000 -424 Descending FlightAware ADS-B
Mon 12:35:31 AM 43.8100 -88.2500 207° Southwest 432 497 26,000 -140 Level FlightAware ADS-B
Mon 12:36:12 AM 43.7360 -88.3010 206° Southwest 428 493 25,800 -929 Descending FlightAware ADS-B
Mon 12:36:55 AM 43.6630 -88.3520 207° Southwest 413 475 24,700 -1,571 Descending FlightAware ADS-B
Mon 12:37:36 AM 43.5930 -88.4000 206° Southwest 401 461 23,600 -1,608 Descending FlightAware ADS-B
Mon 12:38:32 AM 43.4990 -88.4660 207° Southwest 400 460 22,100 -1,515 Descending FlightAware ADS-B
Mon 12:39:15 AM 43.4300 -88.5130 206° Southwest 394 453 21,100 -1,357 Descending FlightAware ADS-B
Mon 12:39:56 AM 43.3640 -88.5590 207° Southwest 393 452 20,200 -1,259 Descending FlightAware ADS-B
Mon 12:40:36 AM 43.2980 -88.6050 207° Southwest 385 443 19,400 -1,271 Descending FlightAware ADS-B
Mon 12:41:21 AM 43.2270 -88.6530 206° Southwest 381 438 18,400 -1,412 Descending FlightAware ADS-B
Mon 12:42:01 AM 43.1640 -88.6960 206° Southwest 382 440 17,400 -1,429 Descending FlightAware ADS-B
Mon 12:42:45 AM 43.0950 -88.7430 206° Southwest 375 432 16,400 -1,373 Descending FlightAware ADS-B
Mon 12:43:24 AM 43.0350 -88.7840 207° Southwest 369 425 15,500 -1,157 Descending FlightAware ADS-B
Mon 12:44:08 AM 42.9650 -88.8170 199° South 363 418 14,800 -988 Descending FlightAware ADS-B
Mon 12:44:49 AM 42.9020 -88.8470 199° South 358 412 14,100 -692 Descending FlightAware ADS-B
Mon 12:45:26 AM 42.8480 -88.8640 193° South 357 411 13,900 -964 Descending FlightAware ADS-B
Mon 12:45:45 AM 42.8170 -88.8230 136° Southeast 340 391 13,200 -1,322 Descending FlightAware ADS-B
Mon 12:46:25 AM 42.7610 -88.7840 153° Southeast 336 387 12,600 -1,200 Descending FlightAware ADS-B
Mon 12:47:10 AM 42.6990 -88.7380 151° Southeast 324 373 11,500 -1,227 Descending FlightAware ADS-B
Mon 12:47:53 AM 42.6460 -88.6980 151° Southeast 302 348 10,800 -940 Descending FlightAware ADS-B
Mon 12:48:33 AM 42.5970 -88.6630 152° Southeast 294 338 10,200 -1,000 Descending FlightAware ADS-B
Mon 12:48:59 AM 42.5660 -88.6400 151° Southeast 292 336 9,700 -1,000 Descending FlightAware ADS-B
Mon 12:49:27 AM 42.5350 -88.6160 150° Southeast 292 336 9,300 -712 Descending FlightAware ADS-B
Mon 12:49:58 AM 42.4970 -88.5890 152° Southeast 289 333 9,000 -300 Descending FlightAware ADS-B
Mon 12:50:27 AM 42.4620 -88.5640 152° Southeast 288 331 9,000  Level FlightAware ADS-B
Mon 12:50:54 AM 42.4310 -88.5410 151° Southeast 289 333 9,000  Level FlightAware ADS-B
Mon 12:51:23 AM 42.3960 -88.5160 152° Southeast 288 331 9,000  Level FlightAware ADS-B
Mon 12:51:35 AM 42.3820 -88.5050 150° Southeast 287 330 9,000  Level FlightAware ADS-B
Mon 12:52:03 AM 42.3500 -88.4800 150° Southeast 288 331 9,000  Level FlightAware ADS-B
Mon 12:52:19 AM 42.3320 -88.4670 152° Southeast 289 333 9,000 -818 Level FlightAware ADS-B
Mon 12:52:47 AM 42.2980 -88.4420 151° Southeast 289 333 8,400 -1,286 Descending FlightAware ADS-B
Mon 12:53:15 AM 42.2650 -88.4170 151° Southeast 286 329 7,800 -1,368 Descending FlightAware ADS-B
Mon 12:53:44 AM 42.2330 -88.3930 151° Southeast 281 323 7,100 -1,286 Descending FlightAware ADS-B
Mon 12:54:11 AM 42.2020 -88.3690 150° Southeast 273 314 6,600 -1,050 Descending FlightAware ADS-B
Mon 12:54:24 AM 42.1880 -88.3580 150° Southeast 273 314 6,400 -1,350 Descending FlightAware ADS-B
Mon 12:54:51 AM 42.1600 -88.3310 144° Southeast 271 312 5,700 -1,500 Descending FlightAware ADS-B
Mon 12:55:20 AM 42.1320 -88.3010 142° Southeast 268 308 5,000 -1,179 Descending FlightAware ADS-B
Mon 12:55:47 AM 42.1060 -88.2730 141° Southeast 266 306 4,600 -1,019 Descending FlightAware ADS-B
Mon 12:56:13 AM 42.0810 -88.2470 142° Southeast 255 293 4,100 -750 Descending FlightAware ADS-B
Mon 12:56:43 AM 42.0540 -88.2200 143° Southeast 226 260 3,900 -207 Descending FlightAware ADS-B
Mon 12:57:11 AM 42.0330 -88.1980 142° Southeast 189 217 3,900 -316 Level FlightAware ADS-B
Mon 12:57:40 AM 42.0130 -88.1790 145° Southeast 183 211 3,600 -828 Descending FlightAware ADS-B
Mon 12:58:09 AM 41.9940 -88.1580 141° Southeast 174 200 3,100 -737 Descending FlightAware ADS-B
Mon 12:58:37 AM 41.9810 -88.1340 126° Southeast 173 199 2,900 -218 Descending FlightAware ADS-B
Mon 12:59:04 AM 41.9690 -88.1110 125° Southeast 166 191 2,900  Level FlightAware ADS-B
Mon 12:59:10 AM 41.9680 -88.1040 101° East 159 183 2,900 -324 Level FlightAware ADS-B
Mon 12:59:41 AM 41.9680 -88.0740 90° East 159 183 2,700 -500 Descending FlightAware ADS-B
Mon 01:00:34 AM 41.9690 -88.0420 88° East 144 166 2,200 -789 Descending FlightAware ADS-B
Mon 01:00:57 AM 41.9690 -88.0050 90° East 151 174 1,700 -982 Descending FlightAware ADS-B
Mon 01:01:29 AM 41.9690 -87.9730 90° East 157 181 1,300 -868 Descending FlightAware ADS-B
Mon 01:02:13 AM 41.9690 -87.9290 90° East 158 182 600 -568 Descending FlightAware ADS-B
Mon 01:02:43 AM 41.9690 -87.9040 90° East 156 180 600  Level FlightAware ADS-B
Mon 01:09:00 AM 41.9667 -87.9000 143° Southeast  Level FlightAware Approximate

Login

Don't have an account? Register now (free) for customized features, flight alerts, and more!